createdAt,value
2023-01-15T00:03:05.332Z,95302.00
2023-01-15T00:07:09.513Z,95297.00
2023-01-15T00:11:13.346Z,95301.00
2023-01-15T00:15:17.984Z,95292.00
2023-01-15T00:19:22.699Z,95293.00
2023-01-15T00:23:40.877Z,95286.00
2023-01-15T00:27:46.300Z,95284.00
2023-01-15T00:31:57.194Z,95289.00
2023-01-15T00:36:05.072Z,95278.00
2023-01-15T00:40:16.268Z,95274.00
2023-01-15T00:44:20.217Z,95271.00
2023-01-15T00:48:25.197Z,95277.00
2023-01-15T00:52:30.639Z,95279.00
2023-01-15T00:56:38.854Z,95268.00
2023-01-15T01:00:44.300Z,95255.00
2023-01-15T01:04:47.914Z,95254.00
2023-01-15T01:09:00.608Z,95252.00
2023-01-15T01:13:03.854Z,95254.00
2023-01-15T01:17:06.894Z,95250.00
2023-01-15T01:21:10.236Z,95251.00
2023-01-15T01:25:18.327Z,95238.00
2023-01-15T01:29:24.407Z,95246.00
2023-01-15T01:33:28.947Z,95234.00
2023-01-15T01:37:34.043Z,95231.00
2023-01-15T01:41:41.109Z,95219.00
2023-01-15T01:45:44.122Z,95214.00
2023-01-15T01:49:49.643Z,95218.00
2023-01-15T01:53:56.601Z,95213.00
2023-01-15T01:58:06.159Z,95211.00
2023-01-15T02:02:09.733Z,95198.00
2023-01-15T02:06:15.420Z,95194.00
2023-01-15T02:10:19.195Z,95189.00
2023-01-15T02:14:31.923Z,95182.00
2023-01-15T02:18:43.326Z,95181.00
2023-01-15T02:23:01.879Z,95172.00
2023-01-15T02:27:12.017Z,95165.00
2023-01-15T02:31:21.048Z,95150.00
2023-01-15T02:35:28.227Z,95145.00
2023-01-15T02:39:33.481Z,95139.00
2023-01-15T02:43:40.928Z,95145.00
2023-01-15T02:47:47.072Z,95131.00
2023-01-15T02:51:55.299Z,95123.00
2023-01-15T02:56:09.519Z,95118.00
2023-01-15T03:00:17.724Z,95102.00
2023-01-15T03:04:28.397Z,95094.00
2023-01-15T03:08:34.477Z,95090.00
2023-01-15T03:12:59.477Z,95082.00
2023-01-15T03:17:11.691Z,95077.00
2023-01-15T03:21:21.999Z,95076.00
2023-01-15T03:25:28.237Z,95082.00
2023-01-15T03:29:35.110Z,95072.00
2023-01-15T03:33:39.677Z,95070.00
2023-01-15T03:37:43.729Z,95065.00
2023-01-15T03:41:56.975Z,95059.00
2023-01-15T03:46:04.646Z,95060.00
2023-01-15T03:50:19.412Z,95051.00
2023-01-15T03:54:31.971Z,95041.00
2023-01-15T03:58:43.422Z,95043.00
2023-01-15T04:02:48.421Z,95043.00
2023-01-15T04:06:53.677Z,95049.00
2023-01-15T04:10:58.163Z,95039.00
2023-01-15T04:15:04.165Z,95041.00
2023-01-15T04:19:08.858Z,95040.00
2023-01-15T04:23:13.599Z,95031.00
2023-01-15T04:27:19.438Z,95040.00
2023-01-15T04:31:29.179Z,95043.00
2023-01-15T04:35:32.621Z,95032.00
2023-01-15T04:39:37.475Z,95039.00
2023-01-15T04:43:57.849Z,95033.00
2023-01-15T04:48:02.968Z,95029.00
2023-01-15T04:52:14.760Z,95023.00
2023-01-15T04:56:20.337Z,95018.00
2023-01-15T05:00:23.822Z,95031.00
2023-01-15T05:04:27.014Z,95023.00
2023-01-15T05:08:30.329Z,95023.00
2023-01-15T05:12:37.029Z,95012.00
2023-01-15T05:16:43.811Z,95015.00
2023-01-15T05:20:46.938Z,95011.00
2023-01-15T05:24:51.777Z,94996.00
2023-01-15T05:28:58.685Z,94990.00
2023-01-15T05:33:01.711Z,94988.00
2023-01-15T05:37:05.006Z,94985.00
2023-01-15T05:41:31.719Z,94978.00
2023-01-15T05:45:37.889Z,94963.00
2023-01-15T05:49:41.056Z,94963.00
2023-01-15T05:53:44.122Z,94967.00
2023-01-15T05:57:47.209Z,94947.00
2023-01-15T06:01:55.850Z,94961.00
2023-01-15T06:06:06.693Z,94964.00
2023-01-15T06:10:10.739Z,94970.00
2023-01-15T06:14:16.367Z,94960.00
2023-01-15T06:18:23.313Z,94970.00
2023-01-15T06:22:27.935Z,94963.00
2023-01-15T06:26:31.085Z,94960.00
2023-01-15T06:30:34.305Z,94949.00
2023-01-15T06:34:38.721Z,94955.00
2023-01-15T06:38:45.044Z,94956.00
2023-01-15T06:43:05.773Z,94942.00
2023-01-15T06:47:23.408Z,94936.00
2023-01-15T06:51:31.177Z,94934.00
2023-01-15T06:55:34.746Z,94935.00
2023-01-15T06:59:38.068Z,94927.00
2023-01-15T07:03:43.450Z,94920.00
2023-01-15T07:07:50.380Z,94903.00
2023-01-15T07:11:55.420Z,94905.00
2023-01-15T07:16:00.942Z,94905.00
2023-01-15T07:20:05.167Z,94904.00
2023-01-15T07:24:14.624Z,94912.00
2023-01-15T07:28:19.057Z,94912.00
2023-01-15T07:32:22.091Z,94901.00
2023-01-15T07:36:25.296Z,94891.00
2023-01-15T07:40:29.888Z,94888.00
2023-01-15T07:44:50.330Z,94884.00
2023-01-15T07:49:12.718Z,94882.00
2023-01-15T07:53:18.078Z,94879.00
2023-01-15T07:57:24.363Z,94876.00
2023-01-15T08:01:27.817Z,94884.00
2023-01-15T08:05:31.007Z,94888.00
2023-01-15T08:09:34.143Z,94884.00
2023-01-15T08:13:56.020Z,94897.00
2023-01-15T08:18:02.107Z,94896.00
2023-01-15T08:22:07.921Z,94878.00
2023-01-15T08:26:10.956Z,94889.00
2023-01-15T08:30:19.773Z,94887.00
2023-01-15T08:34:24.981Z,94906.00
2023-01-15T08:38:30.234Z,94903.00
2023-01-15T08:42:33.521Z,94893.00
2023-01-15T08:46:41.650Z,94893.00
2023-01-15T08:50:44.683Z,94914.00
2023-01-15T08:54:49.577Z,94935.00
2023-01-15T08:58:52.662Z,94933.00
2023-01-15T09:02:57.131Z,94930.00
2023-01-15T09:07:02.341Z,94968.00
2023-01-15T09:11:09.679Z,94976.00
2023-01-15T09:15:15.013Z,94986.00
2023-01-15T09:19:19.414Z,94990.00
2023-01-15T09:23:27.211Z,95003.00
2023-01-15T09:27:30.471Z,95022.00
2023-01-15T09:31:34.128Z,95019.00
2023-01-15T09:35:38.855Z,95046.00
2023-01-15T09:39:42.503Z,95044.00
2023-01-15T09:43:53.411Z,95054.00
2023-01-15T09:48:13.210Z,95048.00
2023-01-15T09:52:29.835Z,95069.00
2023-01-15T09:56:35.717Z,95059.00
2023-01-15T10:00:42.129Z,95059.00
2023-01-15T10:04:49.388Z,95097.00
2023-01-15T10:09:02.671Z,95095.00
2023-01-15T10:13:20.174Z,95093.00
2023-01-15T10:17:30.108Z,95107.00
2023-01-15T10:21:41.840Z,95119.00
2023-01-15T10:25:50.461Z,95121.00
2023-01-15T10:30:02.993Z,95138.00
2023-01-15T10:34:26.104Z,95142.00
2023-01-15T10:38:46.059Z,95135.00
2023-01-15T10:43:01.944Z,95144.00
2023-01-15T10:47:17.924Z,95149.00
2023-01-15T10:51:26.035Z,95159.00
2023-01-15T10:55:37.446Z,95166.00
2023-01-15T10:59:51.120Z,95160.00
2023-01-15T11:03:55.010Z,95159.00
2023-01-15T11:08:58.306Z,95175.00
2023-01-15T11:12:47.843Z,95176.00
2023-01-15T11:17:10.971Z,95177.00
2023-01-15T11:21:16.873Z,95179.00
2023-01-15T11:25:29.215Z,95196.00
2023-01-15T11:29:34.324Z,95203.00
2023-01-15T11:33:40.059Z,95181.00
2023-01-15T11:37:46.139Z,95208.00
2023-01-15T11:42:16.526Z,95196.00
2023-01-15T11:46:42.124Z,95196.00
2023-01-15T11:50:55.770Z,95202.00
2023-01-15T11:55:04.299Z,95216.00
2023-01-15T11:59:13.619Z,95214.00
2023-01-15T12:03:20.160Z,95204.00
2023-01-15T12:07:28.059Z,95203.00
2023-01-15T12:11:55.781Z,95210.00
2023-01-15T12:16:07.124Z,95220.00
2023-01-15T12:20:22.850Z,95244.00
2023-01-15T12:25:11.369Z,95275.00
2023-01-15T12:29:23.327Z,95262.00
2023-01-15T12:33:41.510Z,95261.00
2023-01-15T12:37:48.414Z,95255.00
2023-01-15T12:42:15.504Z,95252.00
2023-01-15T12:46:29.127Z,95275.00
2023-01-15T12:50:47.309Z,95298.00
2023-01-15T12:54:57.151Z,95313.00
2023-01-15T12:59:05.707Z,95319.00
2023-01-15T13:03:25.288Z,95335.00
2023-01-15T13:07:34.936Z,95337.00
2023-01-15T13:11:38.115Z,95351.00
2023-01-15T13:15:46.755Z,95345.00
2023-01-15T13:20:29.983Z,95345.00
2023-01-15T13:25:09.110Z,95348.00
2023-01-15T13:29:24.951Z,95361.00
2023-01-15T13:33:36.451Z,95366.00
2023-01-15T13:37:44.952Z,95369.00
2023-01-15T13:42:08.672Z,95368.00
2023-01-15T13:46:14.104Z,95386.00
2023-01-15T13:50:21.581Z,95403.00
2023-01-15T13:54:28.774Z,95393.00
2023-01-15T13:58:33.270Z,95430.00
2023-01-15T14:02:41.224Z,95423.00
2023-01-15T14:06:45.816Z,95434.00
2023-01-15T14:10:54.320Z,95440.00
2023-01-15T14:15:14.363Z,95453.00
2023-01-15T14:19:49.135Z,95445.00
2023-01-15T14:24:15.527Z,95458.00
2023-01-15T14:28:42.510Z,95442.00
2023-01-15T14:32:59.570Z,95463.00
2023-01-15T14:37:05.249Z,95459.00
2023-01-15T14:41:13.879Z,95469.00
2023-01-15T14:45:29.186Z,95480.00
2023-01-15T14:49:43.481Z,95494.00
2023-01-15T14:53:55.133Z,95487.00
2023-01-15T14:58:04.175Z,95493.00
2023-01-15T15:02:16.606Z,95490.00
2023-01-15T15:06:20.257Z,95499.00
2023-01-15T15:10:30.558Z,95496.00
2023-01-15T15:14:41.742Z,95495.00
2023-01-15T15:19:00.511Z,95492.00
2023-01-15T15:23:13.531Z,95501.00
2023-01-15T15:27:20.510Z,95519.00
2023-01-15T15:31:26.271Z,95518.00
2023-01-15T15:35:33.811Z,95521.00
2023-01-15T15:39:43.504Z,95535.00
2023-01-15T15:44:11.621Z,95531.00
2023-01-15T15:48:36.204Z,95528.00
2023-01-15T15:52:45.889Z,95515.00
2023-01-15T15:57:02.081Z,95524.00
2023-01-15T16:01:07.415Z,95536.00
2023-01-15T16:05:24.045Z,95534.00
2023-01-15T16:09:28.418Z,95526.00
2023-01-15T16:13:34.422Z,95537.00
2023-01-15T16:17:40.081Z,95548.00
2023-01-15T16:21:43.644Z,95542.00
2023-01-15T16:25:59.358Z,95545.00
2023-01-15T16:30:06.245Z,95548.00
2023-01-15T16:34:19.747Z,95553.00
2023-01-15T16:38:24.823Z,95561.00
2023-01-15T16:42:34.439Z,95562.00
2023-01-15T16:46:49.230Z,95563.00
2023-01-15T16:50:55.345Z,95581.00
2023-01-15T16:55:00.941Z,95584.00
2023-01-15T16:59:16.249Z,95578.00
2023-01-15T17:03:24.636Z,95585.00
2023-01-15T17:07:36.681Z,95571.00
2023-01-15T17:11:40.014Z,95564.00
2023-01-15T17:15:47.867Z,95575.00
2023-01-15T17:19:52.027Z,95575.00
2023-01-15T17:23:56.252Z,95581.00
2023-01-15T17:28:00.563Z,95591.00
2023-01-15T17:32:05.443Z,95587.00
2023-01-15T17:36:09.816Z,95580.00
2023-01-15T17:40:13.819Z,95568.00
2023-01-15T17:44:19.712Z,95567.00
2023-01-15T17:48:24.477Z,95579.00
2023-01-15T17:52:27.497Z,95569.00
2023-01-15T17:56:48.163Z,95566.00
2023-01-15T18:01:12.652Z,95573.00
2023-01-15T18:05:32.999Z,95578.00
2023-01-15T18:09:40.036Z,95585.00
2023-01-15T18:13:43.083Z,95583.00
2023-01-15T18:17:48.583Z,95567.00
2023-01-15T18:21:54.125Z,95565.00
2023-01-15T18:25:57.358Z,95564.00
2023-01-15T18:30:00.903Z,95558.00
2023-01-15T18:34:04.457Z,95554.00
2023-01-15T18:38:10.275Z,95550.00
2023-01-15T18:42:30.766Z,95554.00
2023-01-15T18:46:50.466Z,95565.00
2023-01-15T18:50:55.839Z,95564.00
2023-01-15T18:55:03.451Z,95548.00
2023-01-15T18:59:08.226Z,95542.00
2023-01-15T19:03:14.591Z,95556.00
2023-01-15T19:07:19.934Z,95550.00
2023-01-15T19:11:24.317Z,95539.00
2023-01-15T19:15:46.128Z,95535.00
2023-01-15T19:19:49.602Z,95525.00
2023-01-15T19:23:52.876Z,95530.00
2023-01-15T19:27:58.169Z,95528.00
2023-01-15T19:32:04.092Z,95536.00
2023-01-15T19:36:11.326Z,95535.00
2023-01-15T19:40:17.794Z,95529.00
2023-01-15T19:44:40.322Z,95533.00
2023-01-15T19:49:07.734Z,95539.00
2023-01-15T19:53:12.686Z,95516.00
2023-01-15T19:57:21.681Z,95526.00
2023-01-15T20:01:28.786Z,95512.00
2023-01-15T20:05:32.982Z,95521.00
2023-01-15T20:09:37.350Z,95523.00
2023-01-15T20:13:53.830Z,95510.00
2023-01-15T20:18:01.438Z,95506.00
2023-01-15T20:22:04.591Z,95511.00
2023-01-15T20:26:11.482Z,95503.00
2023-01-15T20:30:19.832Z,95498.00
2023-01-15T20:34:24.400Z,95499.00
2023-01-15T20:38:27.582Z,95496.00
2023-01-15T20:42:48.553Z,95490.00
2023-01-15T20:46:51.617Z,95484.00
2023-01-15T20:51:02.127Z,95478.00
2023-01-15T20:55:07.354Z,95481.00
2023-01-15T20:59:10.419Z,95480.00
2023-01-15T21:03:16.106Z,95481.00
2023-01-15T21:07:20.582Z,95477.00
2023-01-15T21:11:34.332Z,95476.00
2023-01-15T21:15:37.354Z,95470.00
2023-01-15T21:19:41.303Z,95464.00
2023-01-15T21:23:47.070Z,95463.00
2023-01-15T21:27:58.365Z,95469.00
2023-01-15T21:32:01.735Z,95462.00
2023-01-15T21:36:09.076Z,95442.00
2023-01-15T21:40:20.771Z,95442.00
2023-01-15T21:44:34.622Z,95449.00
2023-01-15T21:48:40.743Z,95439.00
2023-01-15T21:52:45.540Z,95443.00
2023-01-15T21:56:50.151Z,95432.00
2023-01-15T22:00:53.521Z,95429.00
2023-01-15T22:04:56.811Z,95429.00
2023-01-15T22:09:00.033Z,95420.00
2023-01-15T22:13:06.080Z,95415.00
2023-01-15T22:17:12.358Z,95418.00
2023-01-15T22:21:17.958Z,95399.00
2023-01-15T22:25:21.186Z,95397.00
2023-01-15T22:29:27.924Z,95392.00
2023-01-15T22:33:34.318Z,95389.00
2023-01-15T22:37:37.343Z,95378.00
2023-01-15T22:41:57.758Z,95365.00
2023-01-15T22:46:14.399Z,95364.00
2023-01-15T22:50:18.533Z,95352.00
2023-01-15T22:54:27.303Z,95347.00
2023-01-15T22:58:30.291Z,95331.00
2023-01-15T23:02:54.700Z,95333.00
2023-01-15T23:06:58.868Z,95328.00
2023-01-15T23:11:02.031Z,95321.00
2023-01-15T23:15:05.616Z,95302.00
2023-01-15T23:19:10.094Z,95302.00
2023-01-15T23:23:16.308Z,95278.00
2023-01-15T23:27:23.121Z,95275.00
2023-01-15T23:31:29.514Z,95275.00
2023-01-15T23:35:36.879Z,95261.00
2023-01-15T23:39:40.195Z,95260.00
2023-01-15T23:44:03.375Z,95258.00
2023-01-15T23:48:07.086Z,95245.00
2023-01-15T23:52:11.849Z,95239.00
2023-01-15T23:56:15.191Z,95233.00
